Time;durP1;ratioP1;P1;durP2;ratioP2;P2;SDS_P1;SDS_P2;PMS_P1;PMS_P2;Temp;Humidity;BMP_temperature;BMP_pressure;BME280_temperature;BME280_humidity;BME280_pressure;Samples;Min_cycle;Max_cycle;Signal;HPM_P1;HPM_P2
2023/05/29 00:00:40;;;;;;;;;;;;;;;10.14;62.50;101667.35;108145;1265;125783;-81
2023/05/29 00:03:26;;;;;;;;;;;;;;;10.16;62.54;101666.03;108205;1265;67453;-82
2023/05/29 00:05:53;;;;;;;;;;;;;;;10.18;62.58;101669.45;108123;1265;72704;-81
2023/05/29 00:08:20;;;;;;;;;;;;;;;10.21;62.55;101672.37;107954;1265;126305;-81
2023/05/29 00:10:47;;;;;;;;;;;;;;;10.24;62.49;101673.38;108110;1265;59661;-81
2023/05/29 00:13:14;;;;;;;;;;;;;;;10.28;62.43;101671.27;108127;1267;124425;-81
2023/05/29 00:15:41;;;;;;;;;;;;;;;10.32;62.37;101675.84;108061;1265;65683;-80
2023/05/29 00:18:07;;;;;;;;;;;;;;;10.37;62.28;101680.05;108087;1267;72804;-80
2023/05/29 00:20:34;;;;;;;;;;;;;;;10.41;62.19;101680.76;108116;1269;125435;-81
2023/05/29 00:23:05;;;;;;;;;;;;;;;10.45;62.15;101681.29;108178;1265;59381;-80
2023/05/29 00:25:32;;;;;;;;;;;;;;;10.49;62.10;101676.02;108110;1265;124713;-80
2023/05/29 00:27:59;;;;;;;;;;;;;;;10.53;62.00;101677.54;108267;1265;65887;-80
2023/05/29 00:30:26;;;;;;;;;;;;;;;10.55;61.92;101676.42;108117;1265;125067;-80
2023/05/29 00:32:53;;;;;;;;;;;;;;;10.59;61.85;101675.17;108076;1265;59340;-80
2023/05/29 00:35:20;;;;;;;;;;;;;;;10.62;61.82;101677.21;108047;1265;59346;-81
2023/05/29 00:37:47;;;;;;;;;;;;;;;10.64;61.72;101677.46;108089;1265;124817;-81
2023/05/29 00:40:14;;;;;;;;;;;;;;;10.68;61.68;101679.38;108076;1265;67618;-81
2023/05/29 00:42:41;;;;;;;;;;;;;;;10.75;61.61;101685.10;108021;1271;124314;-81
2023/05/29 00:45:08;;;;;;;;;;;;;;;10.82;61.58;101684.30;108259;1266;59341;-81
2023/05/29 00:47:35;;;;;;;;;;;;;;;10.89;61.39;101682.13;108072;1265;60359;-81
2023/05/29 00:50:03;;;;;;;;;;;;;;;10.96;61.27;101682.71;107868;1265;124499;-81
2023/05/29 00:52:30;;;;;;;;;;;;;;;11.02;61.19;101682.43;108133;1265;66813;-81
2023/05/29 00:54:57;;;;;;;;;;;;;;;11.08;61.03;101687.40;108083;1265;126185;-81
2023/05/29 00:57:24;;;;;;;;;;;;;;;11.14;60.80;101681.12;107998;1265;59474;-82
2023/05/29 00:59:51;;;;;;;;;;;;;;;11.19;60.67;101678.15;108089;1270;60042;-81
2023/05/29 01:02:18;;;;;;;;;;;;;;;11.23;60.59;101678.50;108069;1268;124131;-81
2023/05/29 01:04:45;;;;;;;;;;;;;;;11.28;60.42;101677.10;108214;1266;67106;-82
2023/05/29 01:07:13;;;;;;;;;;;;;;;11.32;60.22;101675.66;108077;1268;124493;-82
2023/05/29 01:09:40;;;;;;;;;;;;;;;11.36;60.13;101670.35;108305;1265;59413;-82
2023/05/29 01:12:13;;;;;;;;;;;;;;;11.39;60.01;101673.27;108233;1265;59906;-82
2023/05/29 01:14:40;;;;;;;;;;;;;;;11.44;59.90;101678.03;108216;1265;125215;-81
2023/05/29 01:17:27;;;;;;;;;;;;;;;11.49;59.86;101675.04;108142;1265;67339;-82
2023/05/29 01:19:57;;;;;;;;;;;;;;;11.55;59.72;101673.49;107912;1265;126971;-82
2023/05/29 01:22:39;;;;;;;;;;;;;;;11.59;59.51;101677.33;108026;1265;60011;-82
2023/05/29 01:25:20;;;;;;;;;;;;;;;11.62;59.48;101678.14;108074;1269;125472;-82
2023/05/29 01:27:47;;;;;;;;;;;;;;;11.63;59.22;101678.02;108065;1265;72441;-82
2023/05/29 01:30:14;;;;;;;;;;;;;;;11.64;59.10;101676.11;108139;1265;66915;-82
2023/05/29 01:32:41;;;;;;;;;;;;;;;11.65;59.15;101677.36;107914;1265;126536;-81
2023/05/29 01:35:08;;;;;;;;;;;;;;;11.66;58.87;101680.56;107977;1265;59478;-81
2023/05/29 01:37:35;;;;;;;;;;;;;;;11.66;58.86;101684.25;108014;1265;124112;-81
2023/05/29 01:40:04;;;;;;;;;;;;;;;11.65;58.75;101682.48;108153;1265;75426;-81
2023/05/29 01:42:30;;;;;;;;;;;;;;;11.64;58.63;101684.38;107973;1265;124441;-81
2023/05/29 01:44:57;;;;;;;;;;;;;;;11.62;58.59;101683.58;107996;1267;71468;-82
2023/05/29 01:47:25;;;;;;;;;;;;;;;11.58;58.66;101684.52;108045;1265;59911;-81
2023/05/29 01:49:52;;;;;;;;;;;;;;;11.56;58.55;101685.29;108008;1265;125485;-82
2023/05/29 01:52:18;;;;;;;;;;;;;;;11.52;58.51;101682.53;108329;1265;74874;-82
2023/05/29 01:54:45;;;;;;;;;;;;;;;11.49;58.56;101684.01;108037;1265;124928;-81
2023/05/29 01:57:12;;;;;;;;;;;;;;;11.45;58.52;101679.83;108120;1265;72757;-82
2023/05/29 01:59:41;;;;;;;;;;;;;;;11.41;58.53;101680.58;108067;1265;59715;-82
2023/05/29 02:02:08;;;;;;;;;;;;;;;11.36;58.56;101679.66;108016;1273;125239;-82
2023/05/29 02:04:35;;;;;;;;;;;;;;;11.30;58.53;101682.42;108067;1265;73370;-81
2023/05/29 02:07:02;;;;;;;;;;;;;;;11.23;58.58;101684.64;107934;1265;125400;-81
2023/05/29 02:09:29;;;;;;;;;;;;;;;11.18;58.68;101678.98;108002;1265;73309;-82
2023/05/29 02:11:56;;;;;;;;;;;;;;;11.14;58.74;101679.91;108016;1265;60290;-82
2023/05/29 02:14:25;;;;;;;;;;;;;;;11.11;58.88;101675.58;108147;1265;124601;-81
2023/05/29 02:16:52;;;;;;;;;;;;;;;11.10;58.99;101674.84;108260;1265;75754;-82
2023/05/29 02:19:19;;;;;;;;;;;;;;;11.09;58.96;101677.44;108196;1265;124311;-82
2023/05/29 02:21:46;;;;;;;;;;;;;;;11.07;59.06;101678.23;108078;1265;73077;-82
2023/05/29 02:24:13;;;;;;;;;;;;;;;11.05;58.98;101679.05;108215;1266;59227;-82
2023/05/29 02:26:40;;;;;;;;;;;;;;;11.03;59.04;101687.21;107911;1266;125464;-82
2023/05/29 02:29:07;;;;;;;;;;;;;;;10.98;59.10;101684.77;108188;1269;73425;-82
2023/05/29 02:31:34;;;;;;;;;;;;;;;10.94;59.22;101683.00;108036;1267;125725;-82
2023/05/29 02:34:00;;;;;;;;;;;;;;;10.91;59.31;101685.17;108149;1265;73582;-82
2023/05/29 02:36:27;;;;;;;;;;;;;;;10.88;59.47;101685.09;107970;1264;125330;-82
2023/05/29 02:38:54;;;;;;;;;;;;;;;10.88;59.58;101688.77;108294;1265;60264;-82
2023/05/29 02:41:21;;;;;;;;;;;;;;;10.89;59.60;101689.67;108257;1265;74692;-82
2023/05/29 02:43:48;;;;;;;;;;;;;;;10.91;59.74;101689.59;107981;1265;124660;-82
2023/05/29 02:46:15;;;;;;;;;;;;;;;10.96;59.71;101686.94;108048;1270;71463;-81
2023/05/29 02:48:41;;;;;;;;;;;;;;;11.01;59.84;101686.27;108107;1265;125813;-82
2023/05/29 02:51:08;;;;;;;;;;;;;;;11.05;59.87;101679.92;108065;1265;59441;-82
2023/05/29 02:53:35;;;;;;;;;;;;;;;11.10;59.90;101678.70;108107;1265;74595;-82
2023/05/29 02:56:03;;;;;;;;;;;;;;;11.17;59.89;101678.27;107975;1265;124296;-82
2023/05/29 02:58:29;;;;;;;;;;;;;;;11.22;59.83;101677.39;108008;1265;72826;-82
2023/05/29 03:00:56;;;;;;;;;;;;;;;11.23;59.83;101677.80;107969;1265;125644;-82
2023/05/29 03:03:23;;;;;;;;;;;;;;;11.24;59.84;101676.23;108270;1269;59552;-82
2023/05/29 03:05:50;;;;;;;;;;;;;;;11.25;59.98;101677.17;108180;1267;73100;-81
2023/05/29 03:08:17;;;;;;;;;;;;;;;11.26;59.93;101677.00;108045;1265;124871;-81
2023/05/29 03:10:44;;;;;;;;;;;;;;;11.28;60.00;101677.64;108005;1265;73762;-82
2023/05/29 03:13:11;;;;;;;;;;;;;;;11.34;60.06;101678.91;108029;1265;124691;-82
2023/05/29 03:15:38;;;;;;;;;;;;;;;11.41;60.19;101679.00;108302;1265;59456;-81
2023/05/29 03:18:05;;;;;;;;;;;;;;;11.48;60.05;101681.85;108058;1265;73386;-82
2023/05/29 03:20:32;;;;;;;;;;;;;;;11.52;59.99;101680.92;108222;1265;124852;-81
2023/05/29 03:22:59;;;;;;;;;;;;;;;11.59;60.11;101671.69;108294;1265;73987;-82
2023/05/29 03:25:25;;;;;;;;;;;;;;;11.79;60.19;101670.84;108064;1265;125328;-82
2023/05/29 03:27:52;;;;;;;;;;;;;;;12.47;61.06;101666.77;108177;1265;59426;-82
2023/05/29 03:30:20;;;;;;;;;;;;;;;13.79;61.28;101665.69;108210;1265;73124;-81
2023/05/29 03:32:47;;;;;;;;;;;;;;;15.21;60.19;101662.70;108043;1266;123920;-81
2023/05/29 03:35:14;;;;;;;;;;;;;;;16.28;58.57;101657.79;108076;1272;71046;-81
2023/05/29 03:37:41;;;;;;;;;;;;;;;16.69;56.54;101651.86;108203;1265;125108;-82
2023/05/29 03:40:08;;;;;;;;;;;;;;;17.05;56.19;101655.89;108164;1265;60157;-82
2023/05/29 03:42:35;;;;;;;;;;;;;;;17.92;55.63;101654.23;108122;1266;124845;-82
2023/05/29 03:45:02;;;;;;;;;;;;;;;18.56;54.08;101663.10;108318;1265;67066;-81
2023/05/29 03:47:30;;;;;;;;;;;;;;;18.69;52.61;101665.31;108293;1265;72486;-81
2023/05/29 03:49:56;;;;;;;;;;;;;;;19.28;52.80;101656.70;108009;1265;125690;-81
2023/05/29 03:52:23;;;;;;;;;;;;;;;20.31;51.84;101656.52;108048;1265;59426;-83
2023/05/29 03:54:50;;;;;;;;;;;;;;;21.42;50.75;101657.30;107915;1265;125269;-83
2023/05/29 03:57:17;;;;;;;;;;;;;;;22.60;49.39;101660.70;108272;1269;67424;-83
2023/05/29 03:59:44;;;;;;;;;;;;;;;23.47;48.04;101660.23;108232;1267;73189;-82
2023/05/29 04:02:11;;;;;;;;;;;;;;;24.50;46.71;101662.20;108185;1265;125544;-84
2023/05/29 04:04:39;;;;;;;;;;;;;;;25.23;45.37;101665.98;108035;1267;60198;-84
2023/05/29 04:07:06;;;;;;;;;;;;;;;25.85;44.21;101662.98;107981;1265;124950;-83
2023/05/29 04:09:33;;;;;;;;;;;;;;;26.74;43.43;101664.50;107970;1265;67275;-84
2023/05/29 04:12:02;;;;;;;;;;;;;;;27.64;42.20;101664.75;108081;1265;73002;-83
2023/05/29 04:14:29;;;;;;;;;;;;;;;28.47;41.06;101665.44;108049;1265;125244;-84
2023/05/29 04:16:55;;;;;;;;;;;;;;;29.01;39.73;101669.83;108294;1265;60082;-87
2023/05/29 04:19:22;;;;;;;;;;;;;;;29.54;38.89;101672.35;108199;1265;124953;-82
2023/05/29 04:21:49;;;;;;;;;;;;;;;30.42;38.15;101671.79;108228;1265;65556;-82
2023/05/29 04:24:16;;;;;;;;;;;;;;;31.29;37.36;101672.76;108167;1270;63868;-82
2023/05/29 04:26:43;;;;;;;;;;;;;;;32.15;36.16;101670.40;108046;1265;124333;-82
2023/05/29 04:29:12;;;;;;;;;;;;;;;32.86;35.19;101668.52;108209;1265;59973;-82
2023/05/29 04:31:40;;;;;;;;;;;;;;;33.59;34.29;101670.13;107979;1264;124861;-81
2023/05/29 04:34:07;;;;;;;;;;;;;;;34.25;33.29;101670.13;108309;1269;59624;-80
2023/05/29 04:36:38;;;;;;;;;;;;;;;34.88;32.28;101671.55;108038;1265;124868;-90
2023/05/29 04:39:06;;;;;;;;;;;;;;;35.40;31.28;101666.83;108224;1265;59172;-90
2023/05/29 04:41:33;;;;;;;;;;;;;;;35.61;30.25;101668.00;108185;1265;59197;-84
2023/05/29 04:44:00;;;;;;;;;;;;;;;35.67;29.49;101663.98;107954;1271;125177;-83
2023/05/29 04:46:27;;;;;;;;;;;;;;;35.22;28.78;101666.87;108167;1265;59993;-81
2023/05/29 04:48:53;;;;;;;;;;;;;;;34.77;28.74;101669.52;108115;1265;125512;-83
2023/05/29 04:51:21;;;;;;;;;;;;;;;34.94;28.46;101668.12;108191;1264;60255;-81
2023/05/29 04:53:48;;;;;;;;;;;;;;;35.37;28.26;101667.73;108049;1265;59142;-86
2023/05/29 04:56:15;;;;;;;;;;;;;;;35.90;27.90;101666.67;107992;1265;125249;-82
2023/05/29 04:58:41;;;;;;;;;;;;;;;36.45;27.18;101662.70;108053;1265;59237;-88
2023/05/29 05:01:09;;;;;;;;;;;;;;;35.85;26.27;101661.44;108069;1265;124822;-85
2023/05/29 05:03:36;;;;;;;;;;;;;;;34.62;26.18;101660.58;108110;1265;59456;-85
2023/05/29 05:06:04;;;;;;;;;;;;;;;34.46;26.74;101663.65;108167;1264;59467;-91
2023/05/29 05:08:32;;;;;;;;;;;;;;;35.31;26.70;101662.64;108073;1270;125649;-94
2023/05/29 05:11:00;;;;;;;;;;;;;;;36.10;26.22;101663.62;107993;1265;59799;-91
2023/05/29 05:13:27;;;;;;;;;;;;;;;36.26;25.25;101666.77;108021;1265;124218;-82
2023/05/29 05:15:54;;;;;;;;;;;;;;;35.01;24.83;101667.27;108015;1270;59246;-81
2023/05/29 05:18:21;;;;;;;;;;;;;;;33.37;24.88;101660.59;108255;1265;59685;-81
2023/05/29 05:20:48;;;;;;;;;;;;;;;32.15;25.77;101663.12;108234;1265;124025;-83
2023/05/29 05:23:15;;;;;;;;;;;;;;;32.17;26.41;101661.60;108337;1265;59153;-83
2023/05/29 05:25:41;;;;;;;;;;;;;;;33.05;26.52;101660.76;108125;1270;125053;-83
2023/05/29 05:28:09;;;;;;;;;;;;;;;34.18;25.94;101658.68;108330;1265;59174;-84
2023/05/29 05:30:36;;;;;;;;;;;;;;;34.93;25.10;101654.16;108189;1265;126385;-83
2023/05/29 05:33:03;;;;;;;;;;;;;;;35.28;24.56;101656.81;108292;1265;64818;-83
2023/05/29 05:35:30;;;;;;;;;;;;;;;35.35;24.32;101655.65;108336;1267;59137;-84
2023/05/29 05:37:57;;;;;;;;;;;;;;;34.51;23.84;101655.97;108057;1265;124904;-83
2023/05/29 05:40:25;;;;;;;;;;;;;;;32.94;23.70;101658.23;108309;1265;59404;-83
2023/05/29 05:42:52;;;;;;;;;;;;;;;31.10;24.00;101661.96;107967;1265;125594;-83
2023/05/29 05:45:19;;;;;;;;;;;;;;;29.41;24.48;101668.08;108197;1265;66864;-83
2023/05/29 05:47:46;;;;;;;;;;;;;;;27.53;25.02;101671.90;108081;1265;65779;-83
2023/05/29 05:50:13;;;;;;;;;;;;;;;25.91;26.18;101672.36;108014;1269;124751;-83
2023/05/29 05:52:40;;;;;;;;;;;;;;;24.58;27.06;101673.34;108187;1265;59861;-83
2023/05/29 05:55:07;;;;;;;;;;;;;;;23.56;28.15;101677.84;108221;1265;124526;-83
2023/05/29 05:57:35;;;;;;;;;;;;;;;22.75;29.00;101682.21;108222;1265;74439;-83
2023/05/29 06:00:11;;;;;;;;;;;;;;;21.91;29.97;101686.70;108119;1265;67688;-82
2023/05/29 06:02:41;;;;;;;;;;;;;;;21.42;30.67;101692.85;108238;1265;124724;-83
2023/05/29 06:05:09;;;;;;;;;;;;;;;20.85;31.24;101693.22;108124;1265;60229;-82
2023/05/29 06:07:36;;;;;;;;;;;;;;;20.45;32.13;101691.48;107927;1265;124633;-82
2023/05/29 06:10:03;;;;;;;;;;;;;;;20.21;32.83;101698.96;108317;1265;73430;-82
2023/05/29 06:12:30;;;;;;;;;;;;;;;19.98;33.24;101704.47;108053;1270;125628;-83
2023/05/29 06:14:57;;;;;;;;;;;;;;;19.72;33.54;101704.95;108193;1265;70457;-83
2023/05/29 06:17:24;;;;;;;;;;;;;;;19.51;33.93;101706.47;108096;1265;59494;-83
2023/05/29 06:19:51;;;;;;;;;;;;;;;19.28;34.14;101709.40;108124;1265;124204;-83
2023/05/29 06:22:18;;;;;;;;;;;;;;;19.01;34.51;101715.33;108327;1265;73828;-83
2023/05/29 06:24:45;;;;;;;;;;;;;;;18.85;35.07;101720.38;107980;1265;125714;-83
2023/05/29 06:27:12;;;;;;;;;;;;;;;18.82;35.36;101719.47;108149;1265;72755;-83
2023/05/29 06:29:38;;;;;;;;;;;;;;;18.82;35.80;101722.87;108224;1265;59400;-83
2023/05/29 06:32:05;;;;;;;;;;;;;;;18.90;36.10;101724.49;107986;1266;125144;-83
2023/05/29 06:34:32;;;;;;;;;;;;;;;18.99;36.31;101723.66;108162;1265;74690;-83
2023/05/29 06:36:59;;;;;;;;;;;;;;;19.03;36.29;101719.61;108261;1265;124814;-83
2023/05/29 06:39:26;;;;;;;;;;;;;;;19.11;36.55;101721.26;108215;1265;72762;-83
2023/05/29 06:41:53;;;;;;;;;;;;;;;19.24;36.68;101721.49;108125;1267;59438;-83
2023/05/29 06:44:20;;;;;;;;;;;;;;;19.33;36.49;101717.44;108060;1265;124201;-83
2023/05/29 06:46:46;;;;;;;;;;;;;;;19.28;36.44;101714.40;108048;1265;73957;-83
2023/05/29 06:49:13;;;;;;;;;;;;;;;19.23;36.60;101720.60;108053;1265;124767;-83
2023/05/29 06:51:41;;;;;;;;;;;;;;;19.15;36.41;101721.45;108016;1265;71541;-83
2023/05/29 06:54:08;;;;;;;;;;;;;;;19.10;36.49;101721.06;108140;1265;59458;-84
2023/05/29 06:56:35;;;;;;;;;;;;;;;19.08;36.63;101720.88;108252;1265;126394;-83
2023/05/29 06:59:01;;;;;;;;;;;;;;;19.09;36.68;101722.14;108203;1265;74767;-83
2023/05/29 07:01:28;;;;;;;;;;;;;;;19.03;36.71;101721.02;108065;1265;126561;-83
2023/05/29 07:03:56;;;;;;;;;;;;;;;18.91;36.84;101728.25;107919;1265;72994;-83
2023/05/29 07:06:22;;;;;;;;;;;;;;;18.77;36.92;101729.55;108277;1265;59618;-83
2023/05/29 07:08:49;;;;;;;;;;;;;;;18.62;37.06;101726.42;108160;1270;124926;-84
2023/05/29 07:11:16;;;;;;;;;;;;;;;18.43;37.14;101727.17;108049;1267;74116;-83
2023/05/29 07:13:43;;;;;;;;;;;;;;;18.29;37.60;101722.95;108098;1265;125160;-83
2023/05/29 07:16:10;;;;;;;;;;;;;;;18.17;37.75;101721.96;108260;1265;71324;-83
2023/05/29 07:18:37;;;;;;;;;;;;;;;18.06;37.97;101726.48;108062;1265;125451;-83
2023/05/29 07:21:04;;;;;;;;;;;;;;;18.00;38.20;101722.52;108189;1265;60066;-83
2023/05/29 07:23:31;;;;;;;;;;;;;;;17.94;38.23;101726.54;108073;1265;74659;-83
2023/05/29 07:25:58;;;;;;;;;;;;;;;17.90;38.62;101729.69;107948;1265;124937;-82
2023/05/29 07:28:25;;;;;;;;;;;;;;;17.90;38.73;101729.34;108077;1265;73715;-84
2023/05/29 07:30:51;;;;;;;;;;;;;;;17.94;38.86;101732.57;108050;1269;128252;-84
2023/05/29 07:33:18;;;;;;;;;;;;;;;18.02;38.95;101732.29;107911;1265;59352;-84
2023/05/29 07:35:46;;;;;;;;;;;;;;;18.09;38.93;101732.55;108089;1265;74433;-84
2023/05/29 07:38:12;;;;;;;;;;;;;;;18.13;38.76;101733.12;108031;1265;124699;-84
2023/05/29 07:40:39;;;;;;;;;;;;;;;18.13;38.36;101732.23;108187;1265;71564;-84
2023/05/29 07:43:06;;;;;;;;;;;;;;;18.09;38.58;101732.20;108176;1269;125176;-84
2023/05/29 07:45:33;;;;;;;;;;;;;;;18.13;38.76;101732.05;108292;1265;59638;-84
2023/05/29 07:48:00;;;;;;;;;;;;;;;18.20;38.68;101740.48;108221;1269;74760;-84
2023/05/29 07:50:27;;;;;;;;;;;;;;;18.17;38.36;101736.71;108068;1265;125087;-84
2023/05/29 07:52:55;;;;;;;;;;;;;;;18.10;38.42;101736.29;108147;1269;72157;-84
2023/05/29 07:55:22;;;;;;;;;;;;;;;18.04;38.55;101733.56;108131;1265;125471;-84
2023/05/29 07:57:49;;;;;;;;;;;;;;;18.08;38.61;101736.10;108199;1265;59790;-84
2023/05/29 08:00:16;;;;;;;;;;;;;;;18.09;38.36;101741.97;108113;1270;75736;-84
2023/05/29 08:02:43;;;;;;;;;;;;;;;18.06;38.47;101738.39;108221;1265;124475;-84
2023/05/29 08:05:10;;;;;;;;;;;;;;;18.13;38.46;101735.95;108070;1265;71437;-84
2023/05/29 08:07:37;;;;;;;;;;;;;;;18.19;38.29;101741.18;108086;1265;124232;-84
2023/05/29 08:10:05;;;;;;;;;;;;;;;18.14;38.12;101741.11;108204;1270;59898;-84
2023/05/29 08:12:34;;;;;;;;;;;;;;;18.05;38.17;101738.38;107943;1268;125270;-84
2023/05/29 08:15:01;;;;;;;;;;;;;;;17.96;38.14;101741.30;108139;1267;66797;-84
2023/05/29 08:17:28;;;;;;;;;;;;;;;17.85;38.18;101748.09;108243;1265;70568;-84
2023/05/29 08:19:55;;;;;;;;;;;;;;;17.75;38.35;101746.71;108037;1265;126613;-84
2023/05/29 08:22:27;;;;;;;;;;;;;;;17.69;38.40;101747.71;108227;1265;60220;-84
2023/05/29 08:24:54;;;;;;;;;;;;;;;17.69;38.65;101750.55;107907;1270;125151;-84
2023/05/29 08:27:21;;;;;;;;;;;;;;;17.70;38.71;101747.02;108257;1265;66853;-84
2023/05/29 08:29:48;;;;;;;;;;;;;;;17.77;38.78;101753.49;108036;1265;72793;-84
2023/05/29 08:32:15;;;;;;;;;;;;;;;17.85;38.76;101748.64;108207;1265;124130;-84
2023/05/29 08:34:41;;;;;;;;;;;;;;;17.97;38.83;101749.65;108365;1265;59934;-84
2023/05/29 08:37:10;;;;;;;;;;;;;;;18.08;38.66;101750.66;108137;1265;125262;-84
2023/05/29 08:39:37;;;;;;;;;;;;;;;18.20;38.62;101747.75;108041;1273;66557;-84
2023/05/29 08:42:14;;;;;;;;;;;;;;;18.33;38.39;101750.70;108235;1265;73078;-84
2023/05/29 08:44:41;;;;;;;;;;;;;;;18.37;37.79;101746.83;108136;1266;124830;-84
2023/05/29 08:47:10;;;;;;;;;;;;;;;18.41;37.58;101746.88;108128;1265;60164;-84
2023/05/29 08:49:44;;;;;;;;;;;;;;;18.41;37.50;101747.95;107966;1265;125357;-84
2023/05/29 08:52:19;;;;;;;;;;;;;;;18.33;37.42;101750.53;108296;1265;64971;-84
2023/05/29 08:54:46;;;;;;;;;;;;;;;18.25;37.27;101746.19;108040;1265;125070;-84
2023/05/29 08:57:13;;;;;;;;;;;;;;;18.22;37.46;101745.46;108273;1265;59159;-84
2023/05/29 08:59:41;;;;;;;;;;;;;;;18.24;37.33;101744.95;108277;1265;60660;-84
2023/05/29 09:02:09;;;;;;;;;;;;;;;18.21;37.10;101747.05;108059;1273;125055;-84
2023/05/29 09:04:36;;;;;;;;;;;;;;;18.09;37.03;101756.35;108127;1281;67091;-84
2023/05/29 09:07:03;;;;;;;;;;;;;;;18.04;37.15;101756.46;108103;1265;128213;-84
2023/05/29 09:09:32;;;;;;;;;;;;;;;18.01;37.23;101758.39;108206;1270;59505;-84
2023/05/29 09:12:00;;;;;;;;;;;;;;;17.95;37.26;101756.56;108119;1265;59421;-84
2023/05/29 09:14:36;;;;;;;;;;;;;;;17.88;37.33;101755.59;108094;1270;126457;-84
2023/05/29 09:17:04;;;;;;;;;;;;;;;17.82;37.27;101748.95;108217;1270;68022;-84
2023/05/29 09:19:31;;;;;;;;;;;;;;;17.81;37.40;101751.57;108119;1265;124659;-84
2023/05/29 09:22:04;;;;;;;;;;;;;;;17.83;37.31;101756.56;108097;1265;59285;-84
2023/05/29 09:24:34;;;;;;;;;;;;;;;17.78;37.09;101750.13;107934;1265;124881;-84
2023/05/29 09:27:01;;;;;;;;;;;;;;;17.73;37.09;101744.39;108159;1265;74764;-84
2023/05/29 09:29:32;;;;;;;;;;;;;;;17.72;37.04;101749.16;108010;1271;66520;-84
2023/05/29 09:32:00;;;;;;;;;;;;;;;17.69;36.70;101742.21;108104;1265;125029;-84
2023/05/29 09:34:29;;;;;;;;;;;;;;;17.70;36.77;101753.23;108249;1266;59596;-84
2023/05/29 09:37:08;;;;;;;;;;;;;;;17.74;36.53;101756.84;108116;1267;125558;-84
2023/05/29 09:39:41;;;;;;;;;;;;;;;17.78;36.62;101757.23;108317;1267;75553;-84
2023/05/29 09:42:11;;;;;;;;;;;;;;;17.88;36.89;101768.55;108148;1281;249181;-84
2023/05/29 09:44:39;;;;;;;;;;;;;;;17.92;36.77;101758.30;107887;1267;125427;-84
2023/05/29 09:47:07;;;;;;;;;;;;;;;17.98;36.90;101754.83;108150;1265;59428;-84
2023/05/29 09:49:34;;;;;;;;;;;;;;;18.09;36.91;101757.40;107934;1265;126856;-84
2023/05/29 09:52:01;;;;;;;;;;;;;;;18.16;36.44;101755.35;108047;1265;74209;-84
2023/05/29 09:54:32;;;;;;;;;;;;;;;18.22;36.32;101756.12;108189;1265;124406;-84
2023/05/29 09:57:00;;;;;;;;;;;;;;;18.29;35.92;101757.95;108239;1265;73172;-84
2023/05/29 09:59:27;;;;;;;;;;;;;;;18.28;35.55;101763.45;108158;1270;60308;-84
2023/05/29 10:02:04;;;;;;;;;;;;;;;18.29;35.38;101757.06;108019;1265;124244;-84
2023/05/29 10:04:34;;;;;;;;;;;;;;;18.37;35.47;101756.96;108112;1270;74741;-84
2023/05/29 10:07:08;;;;;;;;;;;;;;;18.48;35.47;101762.74;108177;1266;125275;-84
2023/05/29 10:09:35;;;;;;;;;;;;;;;18.54;35.13;101769.91;108166;1265;73008;-83
2023/05/29 10:12:03;;;;;;;;;;;;;;;18.55;35.04;101775.08;107924;1270;59415;-84
2023/05/29 10:14:31;;;;;;;;;;;;;;;18.55;34.90;101775.60;107912;1265;124695;-84
2023/05/29 10:16:58;;;;;;;;;;;;;;;18.58;34.69;101772.27;108110;1270;74318;-84
2023/05/29 10:19:26;;;;;;;;;;;;;;;18.59;34.66;101768.70;108093;1265;124665;-84
2023/05/29 10:21:53;;;;;;;;;;;;;;;18.58;34.37;101765.68;108203;1267;72711;-84
2023/05/29 10:24:20;;;;;;;;;;;;;;;18.56;34.28;101757.14;108259;1281;59590;-84
2023/05/29 10:26:47;;;;;;;;;;;;;;;18.60;34.21;101753.23;108148;1265;124299;-83
2023/05/29 10:29:19;;;;;;;;;;;;;;;18.66;34.09;101748.68;108261;1265;74339;-83
2023/05/29 10:31:57;;;;;;;;;;;;;;;18.69;33.75;101754.38;108201;1265;125208;-84
2023/05/29 10:34:30;;;;;;;;;;;;;;;18.70;33.45;101754.40;108276;1267;71904;-84
2023/05/29 10:37:02;;;;;;;;;;;;;;;18.73;33.28;101756.54;108149;1269;126019;-84
2023/05/29 10:39:29;;;;;;;;;;;;;;;18.75;33.00;101753.36;108053;1281;59549;-84
2023/05/29 10:41:58;;;;;;;;;;;;;;;18.76;32.79;101751.77;108219;1269;73408;-84
2023/05/29 10:44:31;;;;;;;;;;;;;;;18.78;34.70;101753.38;108034;1271;124992;-84
2023/05/29 10:47:08;;;;;;;;;;;;;;;18.75;36.34;101746.07;108199;1265;72712;-84
2023/05/29 10:49:35;;;;;;;;;;;;;;;18.61;37.00;101753.44;108075;1266;124655;-84
2023/05/29 10:52:03;;;;;;;;;;;;;;;18.44;37.74;101756.48;108286;1267;59552;-84
2023/05/29 10:54:39;;;;;;;;;;;;;;;18.36;38.24;101745.95;108106;1270;124173;-84
2023/05/29 10:57:07;;;;;;;;;;;;;;;18.38;38.47;101750.77;108195;1270;67147;-84
2023/05/29 10:59:38;;;;;;;;;;;;;;;18.39;38.39;101746.86;108160;1267;72202;-84
2023/05/29 11:02:07;;;;;;;;;;;;;;;18.36;38.84;101745.41;108049;1267;124747;-84
2023/05/29 11:04:34;;;;;;;;;;;;;;;18.39;38.74;101745.08;108240;1270;59422;-84
2023/05/29 11:07:05;;;;;;;;;;;;;;;18.33;38.82;101746.80;108069;1267;125353;-83
2023/05/29 11:09:37;;;;;;;;;;;;;;;18.29;39.06;101744.98;108121;1271;68693;-84
2023/05/29 11:12:38;;;;;;;;;;;;;;;18.28;38.92;101740.53;108109;1270;72732;-83
2023/05/29 11:15:09;;;;;;;;;;;;;;;18.31;38.96;101737.54;108304;1267;59352;-84
2023/05/29 11:17:36;;;;;;;;;;;;;;;18.34;39.22;101734.20;108082;1270;60288;-84
2023/05/29 11:20:07;;;;;;;;;;;;;;;18.34;39.33;101738.64;108070;1267;124762;-84
2023/05/29 11:22:46;;;;;;;;;;;;;;;18.22;39.44;101731.78;108065;1272;66789;-85
2023/05/29 11:25:14;;;;;;;;;;;;;;;18.24;39.50;101736.59;108098;1267;125026;-84
2023/05/29 11:27:41;;;;;;;;;;;;;;;18.26;39.56;101733.95;108223;1281;59426;-84
2023/05/29 11:30:08;;;;;;;;;;;;;;;18.29;39.45;101735.75;108225;1268;60669;-84
2023/05/29 11:32:36;;;;;;;;;;;;;;;18.32;39.57;101738.09;108168;1271;125144;-84
2023/05/29 11:35:08;;;;;;;;;;;;;;;18.36;39.61;101735.64;108181;1267;67751;-84
2023/05/29 11:37:35;;;;;;;;;;;;;;;18.45;39.67;101732.86;108081;1270;126782;-84
2023/05/29 11:40:05;;;;;;;;;;;;;;;18.49;39.32;101736.45;107964;1270;59352;-84
2023/05/29 11:42:32;;;;;;;;;;;;;;;18.42;39.34;101731.77;108131;1270;126557;-84
2023/05/29 11:45:12;;;;;;;;;;;;;;;18.38;39.34;101731.04;108010;1267;73399;-84
2023/05/29 11:47:51;;;;;;;;;;;;;;;18.35;39.42;101735.63;108211;1281;66712;-84
2023/05/29 11:50:24;;;;;;;;;;;;;;;18.32;39.31;101734.35;108071;1267;125696;-84
2023/05/29 11:52:51;;;;;;;;;;;;;;;18.30;39.26;101733.80;108140;1271;59496;-84
2023/05/29 11:55:19;;;;;;;;;;;;;;;18.26;39.43;101730.93;107953;1265;124651;-84
2023/05/29 11:57:50;;;;;;;;;;;;;;;18.25;39.39;101727.02;108143;1271;74231;-84
2023/05/29 12:00:18;;;;;;;;;;;;;;;18.25;39.45;101731.45;108127;1270;68401;-84
2023/05/29 12:02:46;;;;;;;;;;;;;;;18.27;39.33;101734.13;107984;1266;125873;-84
2023/05/29 12:05:15;;;;;;;;;;;;;;;18.27;39.16;101728.26;108096;1266;59369;-84
2023/05/29 12:07:50;;;;;;;;;;;;;;;18.23;39.06;101729.83;107997;1265;124635;-84
2023/05/29 12:10:17;;;;;;;;;;;;;;;18.20;39.03;101726.06;108251;1267;74119;-84
2023/05/29 12:12:47;;;;;;;;;;;;;;;18.20;39.06;101722.52;108211;1265;124398;-84
2023/05/29 12:15:15;;;;;;;;;;;;;;;18.23;39.04;101730.20;108084;1266;71424;-84
2023/05/29 12:17:42;;;;;;;;;;;;;;;18.30;38.92;101729.53;108137;1265;59139;-84
2023/05/29 12:20:09;;;;;;;;;;;;;;;18.31;38.78;101729.90;108132;1267;125327;-84
2023/05/29 12:22:37;;;;;;;;;;;;;;;18.25;38.70;101723.80;108048;1267;74128;-84
2023/05/29 12:25:07;;;;;;;;;;;;;;;18.28;38.82;101725.61;108040;1270;126524;-84
2023/05/29 12:27:41;;;;;;;;;;;;;;;18.29;38.56;101725.27;108145;1268;73304;-83